createdAt,value
2023-04-02T00:03:21.916Z,59.87
2023-04-02T00:08:38.526Z,60.11
2023-04-02T00:13:44.667Z,59.88
2023-04-02T00:18:50.773Z,59.98
2023-04-02T00:23:55.855Z,59.89
2023-04-02T00:29:01.737Z,59.96
2023-04-02T00:34:08.679Z,60.12
2023-04-02T00:39:16.459Z,59.95
2023-04-02T00:44:22.210Z,59.85
2023-04-02T00:49:30.943Z,59.90
2023-04-02T00:54:40.949Z,60.04
2023-04-02T00:59:50.111Z,60.08
2023-04-02T01:04:55.513Z,59.87
2023-04-02T01:10:14.945Z,59.92
2023-04-02T01:15:21.982Z,59.94
2023-04-02T01:20:40.398Z,60.04
2023-04-02T01:25:49.254Z,60.10
2023-04-02T01:30:56.321Z,59.99
2023-04-02T01:36:06.892Z,60.05
2023-04-02T01:41:16.894Z,59.90
2023-04-02T01:46:28.582Z,59.98
2023-04-02T01:51:34.909Z,60.06
2023-04-02T01:56:40.345Z,60.03
2023-04-02T02:01:48.184Z,60.05
2023-04-02T02:06:53.281Z,60.12
2023-04-02T02:11:59.086Z,60.21
2023-04-02T02:17:03.948Z,60.28
2023-04-02T02:22:11.016Z,60.25
2023-04-02T02:27:35.226Z,60.11
2023-04-02T02:32:41.794Z,60.09
2023-04-02T02:37:48.139Z,60.20
2023-04-02T02:42:55.339Z,60.27
2023-04-02T02:48:01.934Z,60.34
2023-04-02T02:53:21.780Z,60.27
2023-04-02T02:58:27.169Z,60.30
2023-04-02T03:03:33.801Z,60.30
2023-04-02T03:08:42.861Z,60.21
2023-04-02T03:13:49.694Z,60.38
2023-04-02T03:18:57.298Z,60.34
2023-04-02T03:24:04.142Z,60.18
2023-04-02T03:29:14.454Z,60.46
2023-04-02T03:34:22.123Z,60.22
2023-04-02T03:39:31.797Z,60.56
2023-04-02T03:44:39.649Z,60.30
2023-04-02T03:49:47.349Z,60.50
2023-04-02T03:54:53.606Z,60.55
2023-04-02T04:00:05.367Z,60.41
2023-04-02T04:05:21.076Z,60.37
2023-04-02T04:10:26.680Z,60.30
2023-04-02T04:15:33.721Z,60.40
2023-04-02T04:20:45.807Z,60.49
2023-04-02T04:25:57.621Z,60.41
2023-04-02T04:31:06.886Z,60.40
2023-04-02T04:36:18.956Z,60.33
2023-04-02T04:41:25.096Z,60.45
2023-04-02T04:46:32.624Z,60.46
2023-04-02T04:51:39.692Z,60.35
2023-04-02T04:56:47.855Z,60.46
2023-04-02T05:01:59.324Z,60.60
2023-04-02T05:07:08.930Z,60.45
2023-04-02T05:12:18.958Z,60.50
2023-04-02T05:17:26.421Z,60.49
2023-04-02T05:22:38.890Z,60.42
2023-04-02T05:27:48.858Z,60.46
2023-04-02T05:32:57.059Z,60.62
2023-04-02T05:38:02.231Z,60.66
2023-04-02T05:43:09.249Z,60.47
2023-04-02T05:48:17.895Z,60.59
2023-04-02T05:53:25.242Z,60.73
2023-04-02T05:58:36.842Z,60.58
2023-04-02T06:03:46.785Z,60.64
2023-04-02T06:08:54.814Z,60.56
2023-04-02T06:13:59.953Z,60.73
2023-04-02T06:19:05.726Z,60.58
2023-04-02T06:24:15.324Z,60.84
2023-04-02T06:29:25.372Z,60.74
2023-04-02T06:34:31.415Z,60.26
2023-04-02T06:39:35.902Z,60.07
2023-04-02T06:44:40.476Z,59.85
2023-04-02T06:49:47.576Z,59.51
2023-04-02T06:54:52.431Z,59.01
2023-04-02T06:59:57.158Z,58.76
2023-04-02T07:05:03.299Z,58.81
2023-04-02T07:10:09.905Z,58.97
2023-04-02T07:15:17.221Z,58.95
2023-04-02T07:20:27.253Z,58.98
2023-04-02T07:25:32.110Z,58.97
2023-04-02T07:30:37.002Z,58.87
2023-04-02T07:35:42.031Z,58.98
2023-04-02T07:40:46.797Z,59.08
2023-04-02T07:45:51.874Z,59.24
2023-04-02T07:50:56.752Z,58.99
2023-04-02T07:56:02.620Z,58.64
2023-04-02T08:01:16.361Z,58.78
2023-04-02T08:06:21.579Z,59.10
2023-04-02T08:11:26.710Z,59.20
2023-04-02T08:16:44.123Z,59.27
2023-04-02T08:21:51.441Z,59.47
2023-04-02T08:26:56.995Z,59.39
2023-04-02T08:32:01.997Z,59.42
2023-04-02T08:37:07.515Z,59.37
2023-04-02T08:42:20.218Z,59.36
2023-04-02T08:47:26.395Z,59.23
2023-04-02T08:52:32.842Z,59.39
2023-04-02T08:57:43.671Z,59.45
2023-04-02T09:02:52.999Z,59.50
2023-04-02T09:07:59.530Z,59.65
2023-04-02T09:13:09.961Z,59.46
2023-04-02T09:18:15.759Z,59.45
2023-04-02T09:23:21.301Z,59.61
2023-04-02T09:28:26.764Z,59.74
2023-04-02T09:33:45.141Z,59.70
2023-04-02T09:38:59.455Z,59.88
2023-04-02T09:44:14.075Z,59.88
2023-04-02T09:49:19.926Z,59.79
2023-04-02T09:54:26.174Z,59.90
2023-04-02T09:59:30.991Z,59.79
2023-04-02T10:04:37.077Z,60.01
2023-04-02T10:09:42.098Z,60.05
2023-04-02T10:14:48.984Z,59.84
2023-04-02T10:19:56.265Z,59.78
2023-04-02T10:25:01.830Z,59.90
2023-04-02T10:30:13.708Z,59.97
2023-04-02T10:35:22.388Z,60.08
2023-04-02T10:40:29.164Z,59.92
2023-04-02T10:45:39.515Z,60.10
2023-04-02T10:50:49.751Z,60.08
2023-04-02T10:55:56.685Z,60.17
2023-04-02T11:01:02.936Z,60.12
2023-04-02T11:06:12.223Z,60.00
2023-04-02T11:11:18.121Z,60.17
2023-04-02T11:16:22.788Z,60.13
2023-04-02T11:21:54.842Z,60.20
2023-04-02T11:27:07.732Z,60.18
2023-04-02T11:32:25.507Z,60.19
2023-04-02T11:37:35.171Z,60.19
2023-04-02T11:42:40.705Z,60.31
2023-04-02T11:48:07.989Z,60.23
2023-04-02T11:53:20.845Z,60.16
2023-04-02T11:58:49.423Z,59.90
2023-04-02T12:04:02.734Z,60.04
2023-04-02T12:09:15.770Z,60.01
2023-04-02T12:14:42.643Z,59.86
2023-04-02T12:19:49.375Z,60.10
2023-04-02T12:24:56.555Z,60.15
2023-04-02T12:30:13.101Z,60.10
2023-04-02T12:35:27.310Z,60.40
2023-04-02T12:40:32.163Z,60.22
2023-04-02T12:45:37.560Z,60.23
2023-04-02T12:50:42.319Z,60.16
2023-04-02T12:55:48.725Z,60.35
2023-04-02T13:00:53.619Z,60.35
2023-04-02T13:05:58.663Z,60.41
2023-04-02T13:11:04.443Z,60.44
2023-04-02T13:16:25.570Z,60.51
2023-04-02T13:21:31.862Z,60.39
2023-04-02T13:26:36.552Z,60.53
2023-04-02T13:31:41.761Z,60.37
2023-04-02T13:36:46.786Z,60.53
2023-04-02T13:41:52.479Z,60.48
2023-04-02T13:46:57.280Z,60.34
2023-04-02T13:52:04.657Z,60.85
2023-04-02T13:57:10.315Z,60.54
2023-04-02T14:02:17.714Z,60.47
2023-04-02T14:07:27.820Z,60.70
2023-04-02T14:12:36.376Z,60.53
2023-04-02T14:17:48.099Z,60.72
2023-04-02T14:23:00.489Z,60.63
2023-04-02T14:28:09.847Z,60.71
2023-04-02T14:33:19.743Z,60.69
2023-04-02T14:38:27.427Z,60.84
2023-04-02T14:43:33.420Z,60.83
2023-04-02T14:48:48.583Z,60.73
2023-04-02T14:53:57.873Z,60.95
2023-04-02T14:59:08.069Z,61.00
2023-04-02T15:04:14.423Z,60.86
2023-04-02T15:09:21.630Z,60.71
2023-04-02T15:14:28.686Z,60.83
2023-04-02T15:19:33.429Z,60.68
2023-04-02T15:24:42.904Z,60.74
2023-04-02T15:29:49.362Z,60.81
2023-04-02T15:34:58.719Z,60.91
2023-04-02T15:40:19.351Z,60.82
2023-04-02T15:45:30.160Z,60.82
2023-04-02T15:50:44.071Z,60.93
2023-04-02T15:55:50.767Z,61.20
2023-04-02T16:01:03.701Z,60.92
2023-04-02T16:06:25.474Z,61.07
2023-04-02T16:11:30.223Z,61.03
2023-04-02T16:16:35.779Z,61.09
2023-04-02T16:21:43.946Z,61.10
2023-04-02T16:26:54.164Z,61.09
2023-04-02T16:32:03.344Z,61.26
2023-04-02T16:37:12.626Z,61.32
2023-04-02T16:42:21.710Z,61.15
2023-04-02T16:47:37.476Z,61.05
2023-04-02T16:52:47.925Z,61.24
2023-04-02T16:57:58.920Z,61.19
2023-04-02T17:03:12.902Z,61.26
2023-04-02T17:08:21.282Z,61.18
2023-04-02T17:13:29.466Z,61.14
2023-04-02T17:18:34.805Z,61.14
2023-04-02T17:23:55.368Z,61.55
2023-04-02T17:29:02.352Z,61.07
2023-04-02T17:34:13.021Z,61.38
2023-04-02T17:39:22.262Z,61.20
2023-04-02T17:44:45.594Z,61.24
2023-04-02T17:49:57.515Z,61.38
2023-04-02T17:55:10.642Z,61.13
2023-04-02T18:00:21.922Z,61.07
2023-04-02T18:05:28.990Z,61.45
2023-04-02T18:10:37.360Z,61.24
2023-04-02T18:15:50.804Z,61.06
2023-04-02T18:21:04.343Z,61.13
2023-04-02T18:26:13.022Z,61.14
2023-04-02T18:31:25.351Z,61.35
2023-04-02T18:36:38.331Z,61.15
2023-04-02T18:41:51.070Z,61.33
2023-04-02T18:46:57.318Z,61.32
2023-04-02T18:52:03.709Z,61.23
2023-04-02T18:57:12.279Z,61.39
2023-04-02T19:02:32.021Z,61.49
2023-04-02T19:07:39.975Z,61.13
2023-04-02T19:12:45.225Z,61.39
2023-04-02T19:17:56.037Z,61.58
2023-04-02T19:23:07.720Z,61.29
2023-04-02T19:28:19.438Z,61.42
2023-04-02T19:33:34.081Z,61.45
2023-04-02T19:38:49.377Z,61.37
2023-04-02T19:43:54.624Z,61.49
2023-04-02T19:49:03.599Z,61.48
2023-04-02T19:54:08.709Z,61.51
2023-04-02T20:04:21.255Z,61.54
2023-04-02T20:09:26.390Z,61.63
2023-04-02T20:14:31.205Z,61.43
2023-04-02T20:19:36.144Z,61.40
2023-04-02T20:24:42.255Z,61.43
2023-04-02T20:29:47.775Z,61.46
2023-04-02T20:34:53.848Z,61.36
2023-04-02T20:39:58.544Z,61.41
2023-04-02T20:45:05.877Z,61.43
2023-04-02T20:50:11.822Z,61.63
2023-04-02T20:55:16.850Z,61.51
2023-04-02T21:00:22.395Z,61.50
2023-04-02T21:05:27.090Z,61.53
2023-04-02T21:10:32.059Z,61.57
2023-04-02T21:15:42.256Z,61.33
2023-04-02T21:20:56.128Z,61.44
2023-04-02T21:26:01.206Z,61.31
2023-04-02T21:31:06.545Z,61.47
2023-04-02T21:36:12.182Z,61.34
2023-04-02T21:41:17.421Z,61.49
2023-04-02T21:46:23.299Z,61.51
2023-04-02T21:51:28.808Z,61.51
2023-04-02T21:56:35.310Z,61.32
2023-04-02T22:01:40.739Z,61.30
2023-04-02T22:06:46.001Z,61.33
2023-04-02T22:11:53.711Z,61.27
2023-04-02T22:16:59.002Z,61.42
2023-04-02T22:22:04.042Z,61.30
2023-04-02T22:27:08.784Z,61.41
2023-04-02T22:32:13.324Z,61.42
2023-04-02T22:37:18.033Z,61.67
2023-04-02T22:42:23.004Z,61.31
2023-04-02T22:47:27.750Z,61.49
2023-04-02T22:52:32.915Z,61.47
2023-04-02T22:57:37.795Z,61.54
2023-04-02T23:02:43.017Z,61.19
2023-04-02T23:07:47.899Z,61.40
2023-04-02T23:12:52.884Z,61.30
2023-04-02T23:17:57.612Z,61.74
2023-04-02T23:23:02.447Z,61.30
2023-04-02T23:28:07.512Z,61.32
2023-04-02T23:33:12.272Z,61.32
2023-04-02T23:38:16.962Z,61.31
2023-04-02T23:43:21.344Z,61.38
2023-04-02T23:48:26.322Z,61.25
2023-04-02T23:53:30.974Z,61.60
2023-04-02T23:58:35.557Z,61.29
